sensor_id;sensor_type;location;lat;lon;timestamp;pressure;altitude;pressure_sealevel;temperature;humidity
70370;BME280;57790;51.356;-2.906;2022-10-23T00:01:44;100807.84;;;15.19;91.00
70370;BME280;57790;51.356;-2.906;2022-10-23T00:04:45;100799.56;;;15.14;91.50
70370;BME280;57790;51.356;-2.906;2022-10-23T00:07:50;100790.34;;;15.16;91.55
70370;BME280;57790;51.356;-2.906;2022-10-23T00:10:50;100783.56;;;15.35;90.76
70370;BME280;57790;51.356;-2.906;2022-10-23T00:13:54;100784.19;;;15.16;91.94
70370;BME280;57790;51.356;-2.906;2022-10-23T00:16:55;100779.34;;;15.26;91.38
70370;BME280;57790;51.356;-2.906;2022-10-23T00:19:55;100768.78;;;15.18;91.94
70370;BME280;57790;51.356;-2.906;2022-10-23T00:22:55;100771.66;;;15.16;91.96
70370;BME280;57790;51.356;-2.906;2022-10-23T00:25:56;100769.59;;;15.18;91.57
70370;BME280;57790;51.356;-2.906;2022-10-23T00:28:56;100765.94;;;15.20;91.76
70370;BME280;57790;51.356;-2.906;2022-10-23T00:31:57;100760.34;;;15.14;91.78
70370;BME280;57790;51.356;-2.906;2022-10-23T00:34:57;100760.72;;;15.11;91.80
70370;BME280;57790;51.356;-2.906;2022-10-23T00:37:57;100753.09;;;15.08;92.11
70370;BME280;57790;51.356;-2.906;2022-10-23T00:40:58;100748.00;;;15.13;91.90
70370;BME280;57790;51.356;-2.906;2022-10-23T00:47:05;100747.19;;;15.13;91.38
70370;BME280;57790;51.356;-2.906;2022-10-23T00:50:06;100734.13;;;15.03;92.15
70370;BME280;57790;51.356;-2.906;2022-10-23T00:53:09;100728.50;;;15.13;91.76
70370;BME280;57790;51.356;-2.906;2022-10-23T00:56:10;100730.91;;;15.08;92.30
70370;BME280;57790;51.356;-2.906;2022-10-23T00:59:11;100725.69;;;15.00;92.56
70370;BME280;57790;51.356;-2.906;2022-10-23T01:02:12;100713.31;;;14.92;92.97
70370;BME280;57790;51.356;-2.906;2022-10-23T01:05:12;100715.41;;;14.97;92.42
70370;BME280;57790;51.356;-2.906;2022-10-23T01:08:31;100711.13;;;15.02;92.44
70370;BME280;57790;51.356;-2.906;2022-10-23T01:12:09;100705.56;;;14.97;92.76
70370;BME280;57790;51.356;-2.906;2022-10-23T01:15:19;100696.28;;;14.93;93.08
70370;BME280;57790;51.356;-2.906;2022-10-23T01:29:13;100638.28;;;15.08;92.16
70370;BME280;57790;51.356;-2.906;2022-10-23T01:32:31;100626.38;;;15.11;91.98
70370;BME280;57790;51.356;-2.906;2022-10-23T01:35:42;100634.09;;;14.99;92.75
70370;BME280;57790;51.356;-2.906;2022-10-23T01:41:53;100635.03;;;15.13;91.73
70370;BME280;57790;51.356;-2.906;2022-10-23T01:45:05;100646.59;;;15.20;91.27
70370;BME280;57790;51.356;-2.906;2022-10-23T01:48:12;100641.78;;;15.09;92.05
70370;BME280;57790;51.356;-2.906;2022-10-23T01:51:14;100632.97;;;15.43;90.29
70370;BME280;57790;51.356;-2.906;2022-10-23T01:54:18;100622.94;;;15.52;89.03
70370;BME280;57790;51.356;-2.906;2022-10-23T01:57:21;100602.34;;;15.80;86.93
70370;BME280;57790;51.356;-2.906;2022-10-23T02:00:22;100583.00;;;15.37;89.79
70370;BME280;57790;51.356;-2.906;2022-10-23T02:03:23;100568.41;;;15.39;90.05
70370;BME280;57790;51.356;-2.906;2022-10-23T02:06:25;100545.47;;;15.52;89.72
70370;BME280;57790;51.356;-2.906;2022-10-23T02:09:26;100498.59;;;15.49;89.48
70370;BME280;57790;51.356;-2.906;2022-10-23T02:16:04;100502.00;;;15.30;90.13
70370;BME280;57790;51.356;-2.906;2022-10-23T02:19:15;100488.44;;;15.31;90.57
70370;BME280;57790;51.356;-2.906;2022-10-23T02:25:34;100505.69;;;15.83;86.97
70370;BME280;57790;51.356;-2.906;2022-10-23T02:28:42;100502.25;;;15.35;89.75
70370;BME280;57790;51.356;-2.906;2022-10-23T02:31:44;100494.84;;;15.43;89.44
70370;BME280;57790;51.356;-2.906;2022-10-23T02:34:45;100492.19;;;15.37;89.80
70370;BME280;57790;51.356;-2.906;2022-10-23T02:37:54;100479.03;;;15.35;89.66
70370;BME280;57790;51.356;-2.906;2022-10-23T02:41:02;100495.25;;;15.40;89.47
70370;BME280;57790;51.356;-2.906;2022-10-23T02:54:07;100455.03;;;15.48;88.61
70370;BME280;57790;51.356;-2.906;2022-10-23T02:57:26;100440.19;;;15.39;89.57
70370;BME280;57790;51.356;-2.906;2022-10-23T03:00:31;100430.78;;;15.50;89.31
70370;BME280;57790;51.356;-2.906;2022-10-23T03:03:39;100419.47;;;15.48;89.08
70370;BME280;57790;51.356;-2.906;2022-10-23T03:06:41;100408.03;;;15.81;87.63
70370;BME280;57790;51.356;-2.906;2022-10-23T03:09:41;100401.44;;;15.83;86.29
70370;BME280;57790;51.356;-2.906;2022-10-23T03:12:42;100396.06;;;15.76;87.23
70370;BME280;57790;51.356;-2.906;2022-10-23T03:15:43;100382.28;;;16.19;84.49
70370;BME280;57790;51.356;-2.906;2022-10-23T03:18:43;100392.38;;;16.17;84.66
70370;BME280;57790;51.356;-2.906;2022-10-23T03:21:43;100396.06;;;15.76;87.34
70370;BME280;57790;51.356;-2.906;2022-10-23T03:24:44;100391.16;;;15.80;87.53
70370;BME280;57790;51.356;-2.906;2022-10-23T03:27:44;100375.09;;;15.73;87.56
70370;BME280;57790;51.356;-2.906;2022-10-23T03:30:45;100378.59;;;16.00;86.05
70370;BME280;57790;51.356;-2.906;2022-10-23T03:33:45;100405.69;;;15.58;88.95
70370;BME280;57790;51.356;-2.906;2022-10-23T03:36:45;100417.88;;;15.67;89.51
70370;BME280;57790;51.356;-2.906;2022-10-23T03:39:46;100444.81;;;15.17;92.97
70370;BME280;57790;51.356;-2.906;2022-10-23T03:42:46;100483.63;;;15.13;93.87
70370;BME280;57790;51.356;-2.906;2022-10-23T03:45:46;100537.75;;;15.29;92.76
70370;BME280;57790;51.356;-2.906;2022-10-23T03:48:47;100482.41;;;14.75;90.69
70370;BME280;57790;51.356;-2.906;2022-10-23T03:51:48;100449.69;;;14.94;92.01
70370;BME280;57790;51.356;-2.906;2022-10-23T03:54:51;100455.91;;;15.08;92.74
70370;BME280;57790;51.356;-2.906;2022-10-23T03:57:53;100444.97;;;15.03;95.14
70370;BME280;57790;51.356;-2.906;2022-10-23T04:00:53;100450.09;;;15.04;95.10
70370;BME280;57790;51.356;-2.906;2022-10-23T04:03:54;100454.06;;;15.15;94.27
70370;BME280;57790;51.356;-2.906;2022-10-23T04:06:54;100485.41;;;15.00;95.32
70370;BME280;57790;51.356;-2.906;2022-10-23T04:09:55;100485.53;;;15.26;94.59
70370;BME280;57790;51.356;-2.906;2022-10-23T04:12:55;100488.63;;;15.23;94.19
70370;BME280;57790;51.356;-2.906;2022-10-23T04:15:55;100479.94;;;15.08;95.32
70370;BME280;57790;51.356;-2.906;2022-10-23T04:18:56;100420.38;;;15.07;95.63
70370;BME280;57790;51.356;-2.906;2022-10-23T04:21:56;100405.34;;;15.00;93.44
70370;BME280;57790;51.356;-2.906;2022-10-23T04:24:57;100389.91;;;14.95;93.27
70370;BME280;57790;51.356;-2.906;2022-10-23T04:27:57;100392.53;;;14.82;94.27
70370;BME280;57790;51.356;-2.906;2022-10-23T04:30:57;100399.88;;;14.73;92.89
70370;BME280;57790;51.356;-2.906;2022-10-23T04:33:58;100393.09;;;14.71;93.46
70370;BME280;57790;51.356;-2.906;2022-10-23T04:36:58;100392.28;;;14.70;94.25
70370;BME280;57790;51.356;-2.906;2022-10-23T04:39:59;100372.78;;;14.70;94.87
70370;BME280;57790;51.356;-2.906;2022-10-23T04:42:59;100355.13;;;14.69;95.26
70370;BME280;57790;51.356;-2.906;2022-10-23T04:46:00;100344.84;;;14.66;95.42
70370;BME280;57790;51.356;-2.906;2022-10-23T04:49:00;100338.44;;;14.60;95.17
70370;BME280;57790;51.356;-2.906;2022-10-23T04:52:01;100329.63;;;14.59;96.00
70370;BME280;57790;51.356;-2.906;2022-10-23T04:55:01;100333.28;;;14.52;95.42
70370;BME280;57790;51.356;-2.906;2022-10-23T04:58:02;100324.25;;;14.53;95.48
70370;BME280;57790;51.356;-2.906;2022-10-23T05:01:02;100330.53;;;14.39;95.82
70370;BME280;57790;51.356;-2.906;2022-10-23T05:04:10;100339.22;;;14.47;95.49
70370;BME280;57790;51.356;-2.906;2022-10-23T05:07:11;100336.72;;;14.46;95.47
70370;BME280;57790;51.356;-2.906;2022-10-23T05:10:11;100358.13;;;14.59;94.80
70370;BME280;57790;51.356;-2.906;2022-10-23T05:13:11;100377.22;;;14.56;94.68
70370;BME280;57790;51.356;-2.906;2022-10-23T05:16:31;100378.63;;;14.52;95.07
70370;BME280;57790;51.356;-2.906;2022-10-23T05:19:40;100395.25;;;14.54;95.68
70370;BME280;57790;51.356;-2.906;2022-10-23T05:22:42;100394.91;;;14.64;95.74
70370;BME280;57790;51.356;-2.906;2022-10-23T05:25:43;100397.72;;;14.55;96.71
70370;BME280;57790;51.356;-2.906;2022-10-23T05:28:44;100384.00;;;14.58;96.89
70370;BME280;57790;51.356;-2.906;2022-10-23T05:31:45;100382.66;;;14.76;95.64
70370;BME280;57790;51.356;-2.906;2022-10-23T05:34:47;100378.16;;;14.76;96.57
70370;BME280;57790;51.356;-2.906;2022-10-23T05:37:49;100375.44;;;14.70;96.79
70370;BME280;57790;51.356;-2.906;2022-10-23T05:40:51;100380.16;;;14.74;97.02
70370;BME280;57790;51.356;-2.906;2022-10-23T05:43:52;100376.06;;;14.72;96.92
70370;BME280;57790;51.356;-2.906;2022-10-23T05:46:53;100353.31;;;14.76;96.33
70370;BME280;57790;51.356;-2.906;2022-10-23T05:49:53;100324.94;;;14.68;97.34
70370;BME280;57790;51.356;-2.906;2022-10-23T05:52:54;100289.44;;;14.61;98.27
70370;BME280;57790;51.356;-2.906;2022-10-23T05:55:54;100315.72;;;14.71;97.45
70370;BME280;57790;51.356;-2.906;2022-10-23T05:58:54;100337.06;;;14.71;97.59
70370;BME280;57790;51.356;-2.906;2022-10-23T06:01:55;100315.69;;;14.64;98.25
70370;BME280;57790;51.356;-2.906;2022-10-23T06:04:55;100331.09;;;14.75;97.72
70370;BME280;57790;51.356;-2.906;2022-10-23T06:07:57;100316.13;;;14.68;98.26
70370;BME280;57790;51.356;-2.906;2022-10-23T06:11:04;100327.25;;;14.78;98.01
70370;BME280;57790;51.356;-2.906;2022-10-23T06:14:05;100330.50;;;14.73;97.72
70370;BME280;57790;51.356;-2.906;2022-10-23T06:17:06;100319.44;;;14.76;98.14
70370;BME280;57790;51.356;-2.906;2022-10-23T06:20:07;100304.63;;;14.74;98.36
70370;BME280;57790;51.356;-2.906;2022-10-23T06:23:07;100295.59;;;14.75;98.07
70370;BME280;57790;51.356;-2.906;2022-10-23T06:26:09;100286.59;;;14.76;98.24
70370;BME280;57790;51.356;-2.906;2022-10-23T06:29:10;100284.53;;;14.78;98.28
70370;BME280;57790;51.356;-2.906;2022-10-23T06:32:10;100285.38;;;14.78;97.91
70370;BME280;57790;51.356;-2.906;2022-10-23T06:35:11;100283.59;;;15.25;94.96
70370;BME280;57790;51.356;-2.906;2022-10-23T06:38:12;100265.31;;;15.29;94.06
70370;BME280;57790;51.356;-2.906;2022-10-23T06:41:15;100251.13;;;14.95;96.69
70370;BME280;57790;51.356;-2.906;2022-10-23T06:44:16;100228.72;;;14.83;97.16
70370;BME280;57790;51.356;-2.906;2022-10-23T06:47:16;100222.16;;;14.79;97.29
70370;BME280;57790;51.356;-2.906;2022-10-23T06:50:17;100213.09;;;14.80;97.07
70370;BME280;57790;51.356;-2.906;2022-10-23T06:53:18;100204.50;;;14.78;96.74
70370;BME280;57790;51.356;-2.906;2022-10-23T06:56:18;100184.75;;;14.72;97.02
70370;BME280;57790;51.356;-2.906;2022-10-23T06:59:18;100175.13;;;14.65;97.81
70370;BME280;57790;51.356;-2.906;2022-10-23T07:02:19;100159.31;;;14.70;97.81
70370;BME280;57790;51.356;-2.906;2022-10-23T07:05:19;100137.34;;;15.21;93.51
70370;BME280;57790;51.356;-2.906;2022-10-23T07:08:20;100140.44;;;14.98;94.98
70370;BME280;57790;51.356;-2.906;2022-10-23T07:11:24;100164.03;;;14.81;95.11
70370;BME280;57790;51.356;-2.906;2022-10-23T07:14:24;100155.22;;;14.87;95.17
70370;BME280;57790;51.356;-2.906;2022-10-23T07:17:28;100132.22;;;14.99;94.11
70370;BME280;57790;51.356;-2.906;2022-10-23T07:20:28;100125.84;;;14.74;93.83
70370;BME280;57790;51.356;-2.906;2022-10-23T07:23:29;100121.56;;;14.66;94.31
70370;BME280;57790;51.356;-2.906;2022-10-23T07:26:29;100109.25;;;14.78;93.97
70370;BME280;57790;51.356;-2.906;2022-10-23T07:29:32;100125.84;;;14.74;93.86
70370;BME280;57790;51.356;-2.906;2022-10-23T07:32:32;100120.31;;;14.88;92.48
70370;BME280;57790;51.356;-2.906;2022-10-23T07:35:33;100125.25;;;14.65;93.26
70370;BME280;57790;51.356;-2.906;2022-10-23T07:38:34;100130.78;;;14.64;93.32
70370;BME280;57790;51.356;-2.906;2022-10-23T07:41:34;100132.63;;;14.56;93.82
70370;BME280;57790;51.356;-2.906;2022-10-23T07:44:35;100128.31;;;14.55;93.78
70370;BME280;57790;51.356;-2.906;2022-10-23T07:47:35;100144.34;;;14.62;93.91
70370;BME280;57790;51.356;-2.906;2022-10-23T07:50:37;100142.06;;;14.66;94.03
70370;BME280;57790;51.356;-2.906;2022-10-23T07:53:38;100149.88;;;14.80;93.40
70370;BME280;57790;51.356;-2.906;2022-10-23T07:56:38;100143.31;;;14.70;93.95
70370;BME280;57790;51.356;-2.906;2022-10-23T07:59:38;100132.03;;;14.61;94.45
70370;BME280;57790;51.356;-2.906;2022-10-23T08:02:39;100114.56;;;14.58;94.50
70370;BME280;57790;51.356;-2.906;2022-10-23T08:05:39;100119.50;;;14.68;94.20
70370;BME280;57790;51.356;-2.906;2022-10-23T08:08:40;100117.44;;;14.64;94.69
70370;BME280;57790;51.356;-2.906;2022-10-23T08:11:40;100116.63;;;14.70;93.79
70370;BME280;57790;51.356;-2.906;2022-10-23T08:14:41;100122.16;;;15.01;93.04
70370;BME280;57790;51.356;-2.906;2022-10-23T08:17:41;100122.78;;;14.77;94.33
70370;BME280;57790;51.356;-2.906;2022-10-23T08:20:44;100133.88;;;14.67;94.00
70370;BME280;57790;51.356;-2.906;2022-10-23T08:23:45;100131.16;;;14.61;94.25
70370;BME280;57790;51.356;-2.906;2022-10-23T08:26:48;100115.38;;;14.59;94.69
70370;BME280;57790;51.356;-2.906;2022-10-23T08:29:48;100145.53;;;14.59;94.81
70370;BME280;57790;51.356;-2.906;2022-10-23T08:32:49;100164.22;;;14.59;94.68
70370;BME280;57790;51.356;-2.906;2022-10-23T08:35:49;100160.09;;;14.57;95.07
70370;BME280;57790;51.356;-2.906;2022-10-23T08:38:52;100160.53;;;14.54;95.19
70370;BME280;57790;51.356;-2.906;2022-10-23T08:41:53;100162.19;;;14.62;94.16
70370;BME280;57790;51.356;-2.906;2022-10-23T08:45:06;100171.81;;;14.56;94.20
70370;BME280;57790;51.356;-2.906;2022-10-23T08:48:27;100168.31;;;14.49;95.37
70370;BME280;57790;51.356;-2.906;2022-10-23T08:51:36;100169.06;;;14.43;96.40
70370;BME280;57790;51.356;-2.906;2022-10-23T08:58:11;100167.94;;;14.65;95.94
70370;BME280;57790;51.356;-2.906;2022-10-23T09:01:37;100170.41;;;14.67;95.81
70370;BME280;57790;51.356;-2.906;2022-10-23T09:04:40;100175.94;;;14.85;95.92
70370;BME280;57790;51.356;-2.906;2022-10-23T09:14:34;100164.53;;;15.89;91.10
70370;BME280;57790;51.356;-2.906;2022-10-23T09:17:39;100167.66;;;15.79;91.54
70370;BME280;57790;51.356;-2.906;2022-10-23T09:20:43;100163.31;;;15.91;92.92
70370;BME280;57790;51.356;-2.906;2022-10-23T09:23:44;100159.44;;;15.81;92.66
70370;BME280;57790;51.356;-2.906;2022-10-23T09:26:46;100144.34;;;16.38;92.35
70370;BME280;57790;51.356;-2.906;2022-10-23T09:29:53;100151.44;;;16.57;90.93
70370;BME280;57790;51.356;-2.906;2022-10-23T09:32:54;100130.81;;;16.64;91.47
70370;BME280;57790;51.356;-2.906;2022-10-23T09:38:58;100133.28;;;17.95;88.93
70370;BME280;57790;51.356;-2.906;2022-10-23T09:42:00;100127.00;;;17.46;88.82
70370;BME280;57790;51.356;-2.906;2022-10-23T09:45:20;100121.53;;;17.35;84.51
70370;BME280;57790;51.356;-2.906;2022-10-23T09:48:21;100137.44;;;17.91;83.30
70370;BME280;57790;51.356;-2.906;2022-10-23T09:51:21;100120.50;;;18.69;80.56
70370;BME280;57790;51.356;-2.906;2022-10-23T09:54:22;100134.44;;;19.24;78.53
70370;BME280;57790;51.356;-2.906;2022-10-23T09:57:36;100130.91;;;19.24;77.50
70370;BME280;57790;51.356;-2.906;2022-10-23T10:00:45;100130.72;;;18.60;77.95
70370;BME280;57790;51.356;-2.906;2022-10-23T10:03:51;100132.84;;;17.80;80.01
70370;BME280;57790;51.356;-2.906;2022-10-23T10:06:56;100136.22;;;18.65;76.56
70370;BME280;57790;51.356;-2.906;2022-10-23T10:09:57;100128.13;;;19.19;76.51
70370;BME280;57790;51.356;-2.906;2022-10-23T10:13:00;100121.56;;;19.61;74.00
70370;BME280;57790;51.356;-2.906;2022-10-23T10:19:56;100115.84;;;19.35;73.66
70370;BME280;57790;51.356;-2.906;2022-10-23T10:33:58;100152.84;;;18.44;76.94
70370;BME280;57790;51.356;-2.906;2022-10-23T10:40:09;100148.34;;;17.96;78.75
70370;BME280;57790;51.356;-2.906;2022-10-23T10:53:21;100113.50;;;19.61;72.40
70370;BME280;57790;51.356;-2.906;2022-10-23T10:56:27;100113.66;;;20.69;69.40
70370;BME280;57790;51.356;-2.906;2022-10-23T10:59:37;100108.00;;;20.54;69.60
70370;BME280;57790;51.356;-2.906;2022-10-23T11:02:48;100096.06;;;21.33;66.31
70370;BME280;57790;51.356;-2.906;2022-10-23T11:05:52;100093.13;;;21.35;66.93
70370;BME280;57790;51.356;-2.906;2022-10-23T11:08:55;100093.88;;;20.46;66.51
70370;BME280;57790;51.356;-2.906;2022-10-23T11:11:58;100094.44;;;20.48;66.18
70370;BME280;57790;51.356;-2.906;2022-10-23T11:14:58;100085.97;;;20.90;65.46
70370;BME280;57790;51.356;-2.906;2022-10-23T11:18:00;100085.66;;;21.42;63.66
70370;BME280;57790;51.356;-2.906;2022-10-23T11:27:51;100059.69;;;20.80;65.92
70370;BME280;57790;51.356;-2.906;2022-10-23T11:37:39;100028.63;;;20.95;64.82
70370;BME280;57790;51.356;-2.906;2022-10-23T11:40:51;100021.91;;;20.97;63.56
70370;BME280;57790;51.356;-2.906;2022-10-23T11:43:57;100024.63;;;21.36;62.94
70370;BME280;57790;51.356;-2.906;2022-10-23T11:50:31;100003.78;;;21.53;60.91
70370;BME280;57790;51.356;-2.906;2022-10-23T11:56:32;100002.06;;;21.03;62.54
70370;BME280;57790;51.356;-2.906;2022-10-23T11:59:35;100001.78;;;21.65;61.39
70370;BME280;57790;51.356;-2.906;2022-10-23T12:02:41;99985.16;;;21.08;61.45
70370;BME280;57790;51.356;-2.906;2022-10-23T12:05:42;99988.06;;;21.45;61.69
70370;BME280;57790;51.356;-2.906;2022-10-23T12:08:49;100000.00;;;21.76;60.27
70370;BME280;57790;51.356;-2.906;2022-10-23T12:18:17;99993.75;;;21.71;60.74
70370;BME280;57790;51.356;-2.906;2022-10-23T12:21:23;99980.94;;;21.61;61.15
70370;BME280;57790;51.356;-2.906;2022-10-23T12:28:33;99989.91;;;21.01;61.67
70370;BME280;57790;51.356;-2.906;2022-10-23T12:31:44;99975.69;;;21.05;63.38
70370;BME280;57790;51.356;-2.906;2022-10-23T12:38:14;99967.34;;;21.78;57.66
70370;BME280;57790;51.356;-2.906;2022-10-23T12:41:27;99959.50;;;22.03;57.24
70370;BME280;57790;51.356;-2.906;2022-10-23T12:44:29;99956.19;;;22.65;57.11
70370;BME280;57790;51.356;-2.906;2022-10-23T12:47:29;99957.00;;;22.61;55.65
70370;BME280;57790;51.356;-2.906;2022-10-23T12:50:31;99946.28;;;22.39;56.40
70370;BME280;57790;51.356;-2.906;2022-10-23T12:53:32;99925.84;;;21.84;57.63
70370;BME280;57790;51.356;-2.906;2022-10-23T12:56:34;99936.19;;;21.65;58.38
70370;BME280;57790;51.356;-2.906;2022-10-23T12:59:37;99934.50;;;21.10;58.64
70370;BME280;57790;51.356;-2.906;2022-10-23T13:02:38;99922.78;;;20.77;59.22
70370;BME280;57790;51.356;-2.906;2022-10-23T13:05:38;99901.28;;;20.83;59.98
70370;BME280;57790;51.356;-2.906;2022-10-23T13:08:48;99893.81;;;21.12;58.75
70370;BME280;57790;51.356;-2.906;2022-10-23T13:11:50;99896.75;;;20.66;58.11
70370;BME280;57790;51.356;-2.906;2022-10-23T13:18:13;99883.41;;;20.38;59.73
70370;BME280;57790;51.356;-2.906;2022-10-23T13:21:26;99870.94;;;21.14;59.15
70370;BME280;57790;51.356;-2.906;2022-10-23T13:24:28;99863.06;;;21.34;57.81
70370;BME280;57790;51.356;-2.906;2022-10-23T13:30:41;99856.09;;;21.38;57.18
70370;BME280;57790;51.356;-2.906;2022-10-23T13:33:50;99855.06;;;21.18;57.04
70370;BME280;57790;51.356;-2.906;2022-10-23T13:37:00;99843.66;;;21.10;58.01
70370;BME280;57790;51.356;-2.906;2022-10-23T13:40:21;99851.69;;;20.40;58.83
70370;BME280;57790;51.356;-2.906;2022-10-23T13:43:24;99841.34;;;21.46;57.99
70370;BME280;57790;51.356;-2.906;2022-10-23T13:46:24;99839.63;;;21.35;57.78
70370;BME280;57790;51.356;-2.906;2022-10-23T13:49:25;99838.00;;;21.66;57.37
70370;BME280;57790;51.356;-2.906;2022-10-23T13:52:25;99825.66;;;21.16;58.97
70370;BME280;57790;51.356;-2.906;2022-10-23T13:55:26;99834.44;;;21.06;58.27
70370;BME280;57790;51.356;-2.906;2022-10-23T13:58:27;99833.34;;;20.80;59.04
70370;BME280;57790;51.356;-2.906;2022-10-23T14:01:31;99850.50;;;20.53;59.85
70370;BME280;57790;51.356;-2.906;2022-10-23T14:04:32;99856.50;;;20.55;60.25
70370;BME280;57790;51.356;-2.906;2022-10-23T14:07:32;99853.41;;;20.29;60.33
70370;BME280;57790;51.356;-2.906;2022-10-23T14:10:32;99843.78;;;20.33;61.79
70370;BME280;57790;51.356;-2.906;2022-10-23T14:13:34;99832.69;;;20.30;60.14
70370;BME280;57790;51.356;-2.906;2022-10-23T14:16:34;99837.94;;;20.19;62.30
70370;BME280;57790;51.356;-2.906;2022-10-23T14:19:34;99823.03;;;20.12;61.26
70370;BME280;57790;51.356;-2.906;2022-10-23T14:22:35;99804.03;;;20.40;61.58
70370;BME280;57790;51.356;-2.906;2022-10-23T14:25:35;99807.44;;;19.13;62.72
70370;BME280;57790;51.356;-2.906;2022-10-23T14:28:36;99790.63;;;19.06;62.83
70370;BME280;57790;51.356;-2.906;2022-10-23T14:31:37;99791.38;;;19.18;63.38
70370;BME280;57790;51.356;-2.906;2022-10-23T14:34:40;99784.97;;;18.91;63.86
70370;BME280;57790;51.356;-2.906;2022-10-23T14:37:41;99780.19;;;18.53;65.46
70370;BME280;57790;51.356;-2.906;2022-10-23T14:40:45;99770.34;;;18.98;64.40
70370;BME280;57790;51.356;-2.906;2022-10-23T14:43:45;99776.03;;;18.85;65.88
70370;BME280;57790;51.356;-2.906;2022-10-23T14:46:45;99775.38;;;18.14;68.71
70370;BME280;57790;51.356;-2.906;2022-10-23T14:49:48;99788.44;;;18.23;69.93
70370;BME280;57790;51.356;-2.906;2022-10-23T14:52:51;99774.66;;;18.19;68.91
70370;BME280;57790;51.356;-2.906;2022-10-23T14:55:51;99787.25;;;17.60;68.88
70370;BME280;57790;51.356;-2.906;2022-10-23T14:58:52;99784.06;;;17.28;70.97
70370;BME280;57790;51.356;-2.906;2022-10-23T15:01:52;99790.97;;;17.06;70.08
70370;BME280;57790;51.356;-2.906;2022-10-23T15:04:53;99784.91;;;16.99;72.69
70370;BME280;57790;51.356;-2.906;2022-10-23T15:07:54;99781.63;;;16.97;70.61
70370;BME280;57790;51.356;-2.906;2022-10-23T15:10:58;99777.75;;;16.44;74.50
70370;BME280;57790;51.356;-2.906;2022-10-23T15:13:59;99776.50;;;16.28;77.04
70370;BME280;57790;51.356;-2.906;2022-10-23T15:17:00;99780.94;;;16.34;75.50
70370;BME280;57790;51.356;-2.906;2022-10-23T15:20:01;99779.19;;;16.28;75.64
70370;BME280;57790;51.356;-2.906;2022-10-23T15:23:01;99785.13;;;16.30;76.40
70370;BME280;57790;51.356;-2.906;2022-10-23T15:26:07;99777.59;;;16.02;78.50
70370;BME280;57790;51.356;-2.906;2022-10-23T15:29:08;99768.50;;;16.10;77.81
70370;BME280;57790;51.356;-2.906;2022-10-23T15:32:10;99763.59;;;16.07;77.53
70370;BME280;57790;51.356;-2.906;2022-10-23T15:35:11;99748.34;;;15.89;77.45
70370;BME280;57790;51.356;-2.906;2022-10-23T15:38:11;99757.63;;;15.87;79.46
70370;BME280;57790;51.356;-2.906;2022-10-23T15:41:14;99743.44;;;16.04;76.62
70370;BME280;57790;51.356;-2.906;2022-10-23T15:44:16;99743.63;;;15.91;78.85
70370;BME280;57790;51.356;-2.906;2022-10-23T15:47:18;99733.94;;;15.90;78.01
70370;BME280;57790;51.356;-2.906;2022-10-23T15:50:18;99741.88;;;15.79;79.02
70370;BME280;57790;51.356;-2.906;2022-10-23T15:53:19;99738.97;;;15.55;82.58
70370;BME280;57790;51.356;-2.906;2022-10-23T15:56:19;99735.78;;;15.71;82.48
70370;BME280;57790;51.356;-2.906;2022-10-23T15:59:21;99739.16;;;15.60;81.80
70370;BME280;57790;51.356;-2.906;2022-10-23T16:02:22;99743.94;;;15.76;84.58
70370;BME280;57790;51.356;-2.906;2022-10-23T16:05:22;99740.63;;;15.56;84.57
70370;BME280;57790;51.356;-2.906;2022-10-23T16:08:23;99742.38;;;15.44;84.28
70370;BME280;57790;51.356;-2.906;2022-10-23T16:11:27;99729.34;;;15.54;85.72
70370;BME280;57790;51.356;-2.906;2022-10-23T16:14:29;99725.75;;;15.42;85.21
70370;BME280;57790;51.356;-2.906;2022-10-23T16:17:29;99721.09;;;15.56;85.44
70370;BME280;57790;51.356;-2.906;2022-10-23T16:20:29;99718.53;;;15.42;84.71
70370;BME280;57790;51.356;-2.906;2022-10-23T16:23:30;99715.44;;;15.45;85.63
70370;BME280;57790;51.356;-2.906;2022-10-23T16:26:32;99706.59;;;15.45;86.83
70370;BME280;57790;51.356;-2.906;2022-10-23T16:29:33;99698.00;;;15.68;87.30
70370;BME280;57790;51.356;-2.906;2022-10-23T16:32:34;99694.47;;;15.49;85.32
70370;BME280;57790;51.356;-2.906;2022-10-23T16:35:35;99684.50;;;15.38;86.21
70370;BME280;57790;51.356;-2.906;2022-10-23T16:38:37;99670.34;;;15.56;86.13
70370;BME280;57790;51.356;-2.906;2022-10-23T16:41:37;99658.91;;;15.48;86.92
70370;BME280;57790;51.356;-2.906;2022-10-23T16:44:37;99661.88;;;15.40;88.55
70370;BME280;57790;51.356;-2.906;2022-10-23T16:47:38;99676.25;;;15.39;88.44
70370;BME280;57790;51.356;-2.906;2022-10-23T16:50:40;99669.97;;;15.34;89.17
70370;BME280;57790;51.356;-2.906;2022-10-23T16:53:41;99668.75;;;15.30;89.35
70370;BME280;57790;51.356;-2.906;2022-10-23T16:56:41;99661.63;;;15.42;89.54
70370;BME280;57790;51.356;-2.906;2022-10-23T16:59:44;99652.28;;;15.33;89.32
70370;BME280;57790;51.356;-2.906;2022-10-23T17:02:44;99647.03;;;15.44;90.07
70370;BME280;57790;51.356;-2.906;2022-10-23T17:05:44;99651.19;;;15.40;89.94
70370;BME280;57790;51.356;-2.906;2022-10-23T17:08:45;99651.25;;;15.34;90.53
70370;BME280;57790;51.356;-2.906;2022-10-23T17:11:46;99647.91;;;15.38;90.24
70370;BME280;57790;51.356;-2.906;2022-10-23T17:14:47;99660.38;;;15.44;89.03
70370;BME280;57790;51.356;-2.906;2022-10-23T17:17:47;99664.88;;;15.26;89.25
70370;BME280;57790;51.356;-2.906;2022-10-23T17:20:55;99678.72;;;14.91;88.32
70370;BME280;57790;51.356;-2.906;2022-10-23T17:23:56;99676.88;;;14.92;88.57
70370;BME280;57790;51.356;-2.906;2022-10-23T17:26:56;99674.00;;;14.93;88.58
70370;BME280;57790;51.356;-2.906;2022-10-23T17:29:56;99671.69;;;14.97;88.38
70370;BME280;57790;51.356;-2.906;2022-10-23T17:32:57;99681.19;;;14.93;88.04
70370;BME280;57790;51.356;-2.906;2022-10-23T17:36:00;99692.13;;;15.09;87.79
70370;BME280;57790;51.356;-2.906;2022-10-23T17:39:04;99693.81;;;15.29;87.06
70370;BME280;57790;51.356;-2.906;2022-10-23T17:42:05;99691.13;;;15.54;88.65